createdAt,value
2022-10-07T00:01:13.288Z,100923.00
2022-10-07T00:03:42.112Z,100884.00
2022-10-07T00:06:14.333Z,100918.00
2022-10-07T00:08:45.523Z,100917.00
2022-10-07T00:11:16.746Z,100920.00
2022-10-07T00:13:48.508Z,100915.00
2022-10-07T00:16:20.309Z,100914.00
2022-10-07T00:18:49.364Z,100917.00
2022-10-07T00:21:20.017Z,100915.00
2022-10-07T00:23:49.215Z,100903.00
2022-10-07T00:26:20.314Z,100902.00
2022-10-07T00:28:51.859Z,100904.00
2022-10-07T00:31:22.641Z,100912.00
2022-10-07T00:33:51.896Z,100890.00
2022-10-07T00:36:24.343Z,100904.00
2022-10-07T00:38:56.019Z,100887.00
2022-10-07T00:41:26.705Z,100854.00
2022-10-07T00:43:57.358Z,100873.00
2022-10-07T00:46:34.440Z,100875.00
2022-10-07T00:49:06.786Z,100868.00
2022-10-07T00:51:36.958Z,100879.00
2022-10-07T00:54:13.233Z,100861.00
2022-10-07T00:56:44.159Z,100865.00
2022-10-07T00:59:17.582Z,100860.00
2022-10-07T01:01:46.281Z,100857.00
2022-10-07T01:04:17.260Z,100856.00
2022-10-07T01:06:46.005Z,100846.00
2022-10-07T01:09:15.759Z,100848.00
2022-10-07T01:11:57.211Z,100837.00
2022-10-07T01:14:46.372Z,100837.00
2022-10-07T01:17:24.552Z,100850.00
2022-10-07T01:20:17.902Z,100848.00
2022-10-07T01:23:11.905Z,100836.00
2022-10-07T01:26:04.175Z,100833.00
2022-10-07T01:28:41.990Z,100830.00
2022-10-07T01:31:16.860Z,100827.00
2022-10-07T01:33:47.964Z,100820.00
2022-10-07T01:36:21.602Z,100815.00
2022-10-07T01:38:56.731Z,100816.00
2022-10-07T01:41:25.152Z,100808.00
2022-10-07T01:43:56.277Z,100813.00
2022-10-07T01:46:26.936Z,100794.00
2022-10-07T01:48:58.547Z,100804.00
2022-10-07T01:51:31.009Z,100794.00
2022-10-07T01:54:14.272Z,100797.00
2022-10-07T01:57:11.213Z,100794.00
2022-10-07T02:00:03.549Z,100791.00
2022-10-07T02:03:07.802Z,100794.00
2022-10-07T02:05:49.365Z,100788.00
2022-10-07T02:08:32.298Z,100774.00
2022-10-07T02:11:15.622Z,100775.00
2022-10-07T02:14:00.939Z,100768.00
2022-10-07T02:16:40.563Z,100775.00
2022-10-07T02:19:16.018Z,100773.00
2022-10-07T02:21:49.155Z,100761.00
2022-10-07T02:24:18.805Z,100755.00
2022-10-07T02:26:50.012Z,100756.00
2022-10-07T02:29:23.051Z,100759.00
2022-10-07T02:31:59.468Z,100758.00
2022-10-07T02:34:31.360Z,100749.00
2022-10-07T02:37:07.183Z,100752.00
2022-10-07T02:39:35.665Z,100752.00
2022-10-07T02:42:14.277Z,100747.00
2022-10-07T02:44:50.070Z,100748.00
2022-10-07T02:47:29.685Z,100742.00
2022-10-07T02:50:01.510Z,100741.00
2022-10-07T02:52:33.968Z,100741.00
2022-10-07T02:55:07.632Z,100737.00
2022-10-07T02:57:43.287Z,100732.00
2022-10-07T03:00:14.523Z,100733.00
2022-10-07T03:02:56.283Z,100749.00
2022-10-07T03:05:30.553Z,100734.00
2022-10-07T03:08:06.989Z,100734.00
2022-10-07T03:10:35.967Z,100738.00
2022-10-07T03:13:05.006Z,100735.00
2022-10-07T03:15:41.842Z,100730.00
2022-10-07T03:18:26.606Z,100724.00
2022-10-07T03:21:01.554Z,100723.00
2022-10-07T03:23:31.228Z,100726.00
2022-10-07T03:26:00.978Z,100718.00
2022-10-07T03:28:35.994Z,100716.00
2022-10-07T03:31:10.124Z,100712.00
2022-10-07T03:33:44.042Z,100706.00
2022-10-07T03:36:13.323Z,100714.00
2022-10-07T03:38:44.162Z,100705.00
2022-10-07T03:41:13.487Z,100697.00
2022-10-07T03:43:41.653Z,100708.00
2022-10-07T03:46:12.476Z,100705.00
2022-10-07T03:48:43.009Z,100688.00
2022-10-07T03:51:11.120Z,100703.00
2022-10-07T03:53:42.120Z,100690.00
2022-10-07T03:56:10.241Z,100696.00
2022-10-07T03:58:39.873Z,100696.00
2022-10-07T04:01:15.088Z,100697.00
2022-10-07T04:03:55.761Z,100689.00
2022-10-07T04:06:23.878Z,100685.00
2022-10-07T04:08:53.167Z,100680.00
2022-10-07T04:11:21.460Z,100680.00
2022-10-07T04:13:51.456Z,100682.00
2022-10-07T04:16:20.851Z,100678.00
2022-10-07T04:18:49.405Z,100670.00
2022-10-07T04:21:18.798Z,100646.00
2022-10-07T04:23:47.971Z,100669.00
2022-10-07T04:26:16.175Z,100674.00
2022-10-07T04:28:49.150Z,100656.00
2022-10-07T04:31:20.600Z,100666.00
2022-10-07T04:33:54.163Z,100665.00
2022-10-07T04:36:28.622Z,100655.00
2022-10-07T04:39:06.396Z,100654.00
2022-10-07T04:41:51.529Z,100663.00
2022-10-07T04:44:22.645Z,100655.00
2022-10-07T04:47:05.426Z,100657.00
2022-10-07T04:49:35.625Z,100655.00
2022-10-07T04:52:07.327Z,100655.00
2022-10-07T04:54:39.313Z,100659.00
2022-10-07T04:57:09.936Z,100644.00
2022-10-07T04:59:42.490Z,100643.00
2022-10-07T05:02:12.299Z,100655.00
2022-10-07T05:04:40.676Z,100655.00
2022-10-07T05:07:10.609Z,100645.00
2022-10-07T05:09:39.037Z,100644.00
2022-10-07T05:12:07.364Z,100644.00
2022-10-07T05:14:35.569Z,100639.00
2022-10-07T05:17:05.058Z,100632.00
2022-10-07T05:19:36.097Z,100637.00
2022-10-07T05:22:04.556Z,100628.00
2022-10-07T05:24:34.231Z,100629.00
2022-10-07T05:27:03.378Z,100625.00
2022-10-07T05:29:31.426Z,100612.00
2022-10-07T05:32:03.915Z,100623.00
2022-10-07T05:34:33.825Z,100620.00
2022-10-07T05:37:01.988Z,100618.00
2022-10-07T05:39:30.385Z,100607.00
2022-10-07T05:42:15.772Z,100617.00
2022-10-07T05:44:51.681Z,100610.00
2022-10-07T05:47:20.984Z,100607.00
2022-10-07T05:49:50.220Z,100608.00
2022-10-07T05:52:21.142Z,100610.00
2022-10-07T05:54:51.784Z,100615.00
2022-10-07T05:57:22.374Z,100606.00
2022-10-07T05:59:51.265Z,100608.00
2022-10-07T06:02:20.980Z,100608.00
2022-10-07T06:04:50.220Z,100602.00
2022-10-07T06:07:22.001Z,100612.00
2022-10-07T06:10:11.738Z,100601.00
2022-10-07T06:13:00.524Z,100605.00
2022-10-07T06:15:31.125Z,100601.00
2022-10-07T06:17:59.473Z,100601.00
2022-10-07T06:20:29.587Z,100597.00
2022-10-07T06:22:58.896Z,100601.00
2022-10-07T06:25:28.448Z,100549.00
2022-10-07T06:27:58.735Z,100605.00
2022-10-07T06:30:29.379Z,100599.00
2022-10-07T06:32:59.161Z,100600.00
2022-10-07T06:35:27.261Z,100592.00
2022-10-07T06:37:56.788Z,100601.00
2022-10-07T06:40:24.967Z,100597.00
2022-10-07T06:42:53.071Z,100591.00
2022-10-07T06:45:28.142Z,100591.00
2022-10-07T06:47:59.288Z,100589.00
2022-10-07T06:50:27.791Z,100592.00
2022-10-07T06:52:55.976Z,100598.00
2022-10-07T06:55:24.265Z,100595.00
2022-10-07T06:57:52.277Z,100591.00
2022-10-07T07:00:22.039Z,100596.00
2022-10-07T07:02:52.049Z,100596.00
2022-10-07T07:05:20.573Z,100593.00
2022-10-07T07:07:49.724Z,100589.00
2022-10-07T07:10:18.562Z,100582.00
2022-10-07T07:12:54.296Z,100581.00
2022-10-07T07:15:23.026Z,100579.00
2022-10-07T07:17:52.592Z,100581.00
2022-10-07T07:20:21.379Z,100580.00
2022-10-07T07:22:50.139Z,100580.00
2022-10-07T07:25:18.351Z,100574.00
2022-10-07T07:27:48.638Z,100562.00
2022-10-07T07:30:22.026Z,100572.00
2022-10-07T07:32:52.364Z,100562.00
2022-10-07T07:35:20.608Z,100564.00
2022-10-07T07:37:48.921Z,100566.00
2022-10-07T07:40:17.361Z,100554.00
2022-10-07T07:42:47.018Z,100563.00
2022-10-07T07:45:17.086Z,100553.00
2022-10-07T07:47:49.313Z,100567.00
2022-10-07T07:50:20.842Z,100551.00
2022-10-07T07:52:51.895Z,100558.00
2022-10-07T07:55:24.600Z,100551.00
2022-10-07T07:57:52.643Z,100550.00
2022-10-07T08:00:20.852Z,100554.00
2022-10-07T08:03:03.233Z,100548.00
2022-10-07T08:05:35.920Z,100548.00
2022-10-07T08:08:04.425Z,100550.00
2022-10-07T08:10:32.839Z,100543.00
2022-10-07T08:13:01.020Z,100553.00
2022-10-07T08:15:29.159Z,100533.00
2022-10-07T08:17:57.455Z,100536.00
2022-10-07T08:20:25.515Z,100542.00
2022-10-07T08:22:58.920Z,100543.00
2022-10-07T08:25:29.399Z,100542.00
2022-10-07T08:27:58.659Z,100533.00
2022-10-07T08:30:27.373Z,100526.00
2022-10-07T08:33:00.366Z,100530.00
2022-10-07T08:35:29.321Z,100530.00
2022-10-07T08:37:58.729Z,100533.00
2022-10-07T08:40:26.963Z,100527.00
2022-10-07T08:42:55.129Z,100527.00
2022-10-07T08:45:32.400Z,100530.00
2022-10-07T08:48:04.297Z,100521.00
2022-10-07T08:50:43.275Z,100514.00
2022-10-07T08:53:21.222Z,100514.00
2022-10-07T08:55:56.292Z,100505.00
2022-10-07T08:58:57.889Z,100526.00
2022-10-07T09:01:45.186Z,100511.00
2022-10-07T09:04:31.058Z,100509.00
2022-10-07T09:07:04.383Z,100506.00
2022-10-07T09:09:40.265Z,100503.00
2022-10-07T09:12:17.865Z,100503.00
2022-10-07T09:14:51.509Z,100495.00
2022-10-07T09:17:26.109Z,100505.00
2022-10-07T09:19:59.934Z,100498.00
2022-10-07T09:22:36.056Z,100484.00
2022-10-07T09:25:21.278Z,100482.00
2022-10-07T09:27:52.112Z,100491.00
2022-10-07T09:30:21.544Z,100490.00
2022-10-07T09:32:54.803Z,100478.00
2022-10-07T09:35:25.931Z,100481.00
2022-10-07T09:38:00.574Z,100438.00
2022-10-07T09:41:02.934Z,100472.00
2022-10-07T09:43:33.569Z,100476.00
2022-10-07T09:46:03.041Z,100462.00
2022-10-07T09:48:34.794Z,100464.00
2022-10-07T09:51:16.088Z,100464.00
2022-10-07T09:53:58.886Z,100462.00
2022-10-07T09:56:42.910Z,100460.00
2022-10-07T09:59:23.642Z,100460.00
2022-10-07T10:01:55.362Z,100456.00
2022-10-07T10:04:31.315Z,100455.00
2022-10-07T10:07:06.185Z,100447.00
2022-10-07T10:09:35.380Z,100457.00
2022-10-07T10:12:14.228Z,100437.00
2022-10-07T10:14:49.219Z,100430.00
2022-10-07T10:17:29.805Z,100439.00
2022-10-07T10:20:31.159Z,100429.00
2022-10-07T10:23:01.422Z,100432.00
2022-10-07T10:26:03.612Z,100431.00
2022-10-07T10:28:47.908Z,100427.00
2022-10-07T10:31:29.260Z,100418.00
2022-10-07T10:34:09.491Z,100416.00
2022-10-07T10:36:46.357Z,100416.00
2022-10-07T10:39:29.202Z,100406.00
2022-10-07T10:42:01.917Z,100403.00
2022-10-07T10:44:50.501Z,100399.00
2022-10-07T10:47:33.511Z,100400.00
2022-10-07T10:50:17.406Z,100398.00
2022-10-07T10:53:03.639Z,100392.00
2022-10-07T10:56:02.927Z,100378.00
2022-10-07T10:58:52.820Z,100380.00
2022-10-07T11:01:35.350Z,100374.00
2022-10-07T11:04:24.719Z,100369.00
2022-10-07T11:07:00.686Z,100363.00
2022-10-07T11:09:39.851Z,100364.00
2022-10-07T11:12:23.036Z,100361.00
2022-10-07T11:15:02.210Z,100363.00
2022-10-07T11:17:37.471Z,100352.00
2022-10-07T11:20:20.164Z,100352.00
2022-10-07T11:22:57.233Z,100352.00
2022-10-07T11:25:35.631Z,100348.00
2022-10-07T11:28:15.704Z,100335.00
2022-10-07T11:30:55.704Z,100340.00
2022-10-07T11:33:33.589Z,100301.00
2022-10-07T11:36:14.032Z,100333.00
2022-10-07T11:38:44.143Z,100320.00
2022-10-07T11:41:21.170Z,100331.00
2022-10-07T11:43:55.710Z,100312.00
2022-10-07T11:46:31.920Z,100302.00
2022-10-07T11:49:08.116Z,100308.00
2022-10-07T11:51:42.011Z,100307.00
2022-10-07T11:54:18.197Z,100274.00
2022-10-07T11:56:50.681Z,100292.00
2022-10-07T11:59:38.153Z,100287.00
2022-10-07T12:02:46.390Z,100279.00
2022-10-07T12:05:57.919Z,100283.00
2022-10-07T12:08:33.628Z,100273.00
2022-10-07T12:11:49.293Z,100264.00
2022-10-07T12:14:44.983Z,100271.00
2022-10-07T12:17:28.191Z,100268.00
2022-10-07T12:20:57.720Z,100258.00
2022-10-07T12:24:10.867Z,100250.00
2022-10-07T12:26:46.880Z,100239.00
2022-10-07T12:29:50.789Z,100237.00
2022-10-07T12:32:58.227Z,100245.00
2022-10-07T12:35:53.948Z,100236.00
2022-10-07T12:38:29.003Z,100227.00
2022-10-07T12:41:25.867Z,100231.00
2022-10-07T12:44:06.228Z,100219.00
2022-10-07T12:46:47.616Z,100224.00
2022-10-07T12:49:25.630Z,100194.00
2022-10-07T12:51:58.839Z,100215.00
2022-10-07T12:54:34.708Z,100213.00
2022-10-07T12:57:03.991Z,100212.00
2022-10-07T12:59:54.029Z,100212.00
2022-10-07T13:03:22.139Z,100204.00
2022-10-07T13:06:51.402Z,100192.00
2022-10-07T13:09:53.288Z,100189.00
2022-10-07T13:12:39.087Z,100185.00
2022-10-07T13:15:26.538Z,100185.00
2022-10-07T13:18:10.665Z,100178.00
2022-10-07T13:21:03.412Z,100184.00
2022-10-07T13:23:32.906Z,100174.00
2022-10-07T13:26:03.797Z,100171.00
2022-10-07T13:28:44.387Z,100166.00
2022-10-07T13:31:21.534Z,100163.00
2022-10-07T13:33:50.736Z,100169.00
2022-10-07T13:36:23.661Z,100177.00
2022-10-07T13:39:10.292Z,100155.00
2022-10-07T13:41:44.507Z,100154.00
2022-10-07T13:44:18.198Z,100153.00
2022-10-07T13:46:55.949Z,100146.00
2022-10-07T13:49:31.490Z,100139.00
2022-10-07T13:52:03.684Z,100126.00
2022-10-07T13:54:34.819Z,100127.00
2022-10-07T13:57:10.204Z,100122.00
2022-10-07T13:59:40.655Z,100117.00
2022-10-07T14:02:15.333Z,100112.00
2022-10-07T14:04:54.827Z,100122.00
2022-10-07T14:07:23.200Z,100119.00
2022-10-07T14:10:04.779Z,100110.00
2022-10-07T14:12:42.131Z,100101.00
2022-10-07T14:15:16.966Z,100102.00
2022-10-07T14:17:47.923Z,100101.00
2022-10-07T14:20:28.310Z,100094.00
2022-10-07T14:22:59.939Z,100090.00
2022-10-07T14:25:31.077Z,100083.00
2022-10-07T14:28:20.588Z,100073.00
2022-10-07T14:31:39.352Z,100077.00
2022-10-07T14:34:33.322Z,100032.00
2022-10-07T14:37:03.495Z,100067.00
2022-10-07T14:39:37.850Z,100064.00
2022-10-07T14:42:11.805Z,100057.00
2022-10-07T14:44:43.956Z,100048.00
2022-10-07T14:47:16.067Z,100049.00
2022-10-07T14:49:44.509Z,100040.00
2022-10-07T14:52:21.963Z,100000.00
2022-10-07T14:54:52.948Z,100030.00
2022-10-07T14:57:20.962Z,100036.00
2022-10-07T14:59:50.301Z,100027.00
2022-10-07T15:02:19.040Z,100023.00
2022-10-07T15:04:47.885Z,100021.00
2022-10-07T15:07:17.771Z,100010.00
2022-10-07T15:09:46.698Z,100013.00
2022-10-07T15:12:17.068Z,100010.00
2022-10-07T15:14:45.192Z,100008.00
2022-10-07T15:17:15.233Z,100003.00
2022-10-07T15:19:43.293Z,100003.00
2022-10-07T15:22:11.286Z,100000.00
2022-10-07T15:24:39.835Z,99997.00
2022-10-07T15:27:09.818Z,99997.00
2022-10-07T15:29:37.854Z,99992.00
2022-10-07T15:32:07.158Z,99990.00
2022-10-07T15:34:36.775Z,99998.00
2022-10-07T15:37:05.912Z,99995.00
2022-10-07T15:39:38.800Z,99991.00
2022-10-07T15:42:09.771Z,99994.00
2022-10-07T15:44:41.033Z,99981.00
2022-10-07T15:47:09.063Z,99979.00
2022-10-07T15:49:38.416Z,99980.00
2022-10-07T15:52:07.026Z,99968.00
2022-10-07T15:54:35.539Z,99982.00
2022-10-07T15:57:04.161Z,99978.00
2022-10-07T15:59:32.358Z,99985.00
2022-10-07T16:02:01.430Z,99968.00
2022-10-07T16:04:29.917Z,99979.00
2022-10-07T16:07:00.237Z,99975.00
2022-10-07T16:09:29.016Z,99953.00
2022-10-07T16:11:57.063Z,99969.00
2022-10-07T16:14:25.098Z,99975.00
2022-10-07T16:16:53.445Z,99976.00
2022-10-07T16:19:22.334Z,99976.00
2022-10-07T16:21:50.761Z,99985.00
2022-10-07T16:24:22.846Z,99978.00
2022-10-07T16:26:51.595Z,99982.00
2022-10-07T16:29:40.227Z,99972.00
2022-10-07T16:32:11.245Z,99969.00
2022-10-07T16:34:43.166Z,99971.00
2022-10-07T16:37:12.291Z,99960.00
2022-10-07T16:39:41.660Z,99970.00
2022-10-07T16:42:09.710Z,99970.00
2022-10-07T16:44:37.870Z,99973.00
2022-10-07T16:47:06.208Z,99966.00
2022-10-07T16:49:36.417Z,99974.00
2022-10-07T16:52:06.520Z,99962.00
2022-10-07T16:54:35.413Z,99963.00
2022-10-07T16:57:05.080Z,99963.00
2022-10-07T16:59:33.268Z,99957.00
2022-10-07T17:02:03.136Z,99963.00
2022-10-07T17:04:31.395Z,99958.00
2022-10-07T17:06:59.410Z,99966.00
2022-10-07T17:09:27.548Z,99963.00
2022-10-07T17:11:57.278Z,99965.00
2022-10-07T17:14:26.993Z,99959.00
2022-10-07T17:16:58.128Z,99964.00
2022-10-07T17:19:29.152Z,99950.00
2022-10-07T17:21:59.177Z,99954.00
2022-10-07T17:24:27.543Z,99937.00
2022-10-07T17:26:56.393Z,99950.00
2022-10-07T17:29:26.861Z,99946.00
2022-10-07T17:31:55.645Z,99950.00
2022-10-07T17:34:23.791Z,99949.00
2022-10-07T17:36:52.113Z,99952.00
2022-10-07T17:39:20.405Z,99948.00
2022-10-07T17:41:49.246Z,99943.00
2022-10-07T17:44:17.569Z,99939.00
2022-10-07T17:46:48.928Z,99944.00
2022-10-07T17:49:17.225Z,99947.00
2022-10-07T17:51:45.320Z,99945.00
2022-10-07T17:54:15.298Z,99940.00
2022-10-07T17:56:45.635Z,99941.00
2022-10-07T17:59:14.342Z,99944.00
2022-10-07T18:01:43.222Z,99942.00
2022-10-07T18:04:18.916Z,99942.00
2022-10-07T18:06:50.807Z,99942.00
2022-10-07T18:09:19.623Z,99948.00
2022-10-07T18:12:05.487Z,99939.00
2022-10-07T18:14:54.044Z,99948.00
2022-10-07T18:17:24.398Z,99937.00
2022-10-07T18:19:54.033Z,99929.00
2022-10-07T18:22:22.593Z,99938.00
2022-10-07T18:24:50.874Z,99935.00
2022-10-07T18:27:25.275Z,99928.00
2022-10-07T18:29:54.245Z,99932.00
2022-10-07T18:32:22.709Z,99925.00
2022-10-07T18:34:50.899Z,99923.00
2022-10-07T18:37:20.290Z,99920.00
2022-10-07T18:39:48.383Z,99916.00
2022-10-07T18:42:16.570Z,99919.00
2022-10-07T18:44:44.882Z,99916.00
2022-10-07T18:47:12.868Z,99915.00
2022-10-07T18:49:41.569Z,99914.00
2022-10-07T18:52:09.704Z,99920.00
2022-10-07T18:54:39.341Z,99914.00
2022-10-07T18:57:07.473Z,99913.00
2022-10-07T18:59:35.807Z,99917.00
2022-10-07T19:02:04.309Z,99909.00
2022-10-07T19:04:33.251Z,99910.00
2022-10-07T19:07:03.029Z,99898.00
2022-10-07T19:09:31.343Z,99905.00
2022-10-07T19:12:00.721Z,99896.00
2022-10-07T19:14:31.094Z,99906.00
2022-10-07T19:16:59.256Z,99906.00
2022-10-07T19:19:27.329Z,99902.00
2022-10-07T19:21:57.450Z,99890.00
2022-10-07T19:24:45.457Z,99892.00
2022-10-07T19:27:16.424Z,99891.00
2022-10-07T19:29:44.684Z,99899.00
2022-10-07T19:32:14.008Z,99906.00
2022-10-07T19:34:42.138Z,99903.00
2022-10-07T19:37:10.332Z,99897.00
2022-10-07T19:39:38.422Z,99898.00
2022-10-07T19:42:06.854Z,99894.00
2022-10-07T19:44:38.546Z,99906.00
2022-10-07T19:47:06.753Z,99892.00
2022-10-07T19:49:34.802Z,99887.00
2022-10-07T19:52:02.910Z,99893.00
2022-10-07T19:54:35.741Z,99883.00
2022-10-07T19:57:04.160Z,99886.00
2022-10-07T19:59:32.215Z,99892.00
2022-10-07T20:02:01.690Z,99886.00
2022-10-07T20:04:30.444Z,99886.00
2022-10-07T20:06:58.727Z,99890.00
2022-10-07T20:09:26.748Z,99893.00
2022-10-07T20:11:55.874Z,99880.00
2022-10-07T20:14:23.919Z,99880.00
2022-10-07T20:16:51.990Z,99881.00
2022-10-07T20:19:21.352Z,99871.00
2022-10-07T20:21:49.461Z,99870.00
2022-10-07T20:24:18.264Z,99867.00
2022-10-07T20:26:46.467Z,99860.00
2022-10-07T20:29:16.153Z,99859.00
2022-10-07T20:31:45.375Z,99833.00
2022-10-07T20:34:16.496Z,99851.00
2022-10-07T20:36:46.088Z,99858.00
2022-10-07T20:39:35.859Z,99857.00
2022-10-07T20:42:27.253Z,99853.00
2022-10-07T20:44:55.348Z,99857.00
2022-10-07T20:47:25.874Z,99849.00
2022-10-07T20:49:56.446Z,99846.00
2022-10-07T20:52:29.046Z,99842.00
2022-10-07T20:54:57.448Z,99830.00
2022-10-07T20:57:28.380Z,99834.00
2022-10-07T20:59:56.672Z,99833.00
2022-10-07T21:02:25.567Z,99828.00
2022-10-07T21:04:53.660Z,99832.00
2022-10-07T21:07:21.904Z,99833.00
2022-10-07T21:09:51.330Z,99818.00
2022-10-07T21:12:19.434Z,99822.00
2022-10-07T21:14:48.534Z,99824.00
2022-10-07T21:17:16.984Z,99827.00
2022-10-07T21:19:45.019Z,99834.00
2022-10-07T21:22:14.523Z,99827.00
2022-10-07T21:24:42.604Z,99824.00
2022-10-07T21:27:11.993Z,99826.00
2022-10-07T21:29:41.208Z,99825.00
2022-10-07T21:32:10.533Z,99826.00
2022-10-07T21:34:39.457Z,99826.00
2022-10-07T21:37:07.881Z,99808.00
2022-10-07T21:39:35.911Z,99811.00
2022-10-07T21:42:04.201Z,99799.00
2022-10-07T21:44:34.750Z,99800.00
2022-10-07T21:47:04.844Z,99807.00
2022-10-07T21:49:32.902Z,99801.00
2022-10-07T21:52:00.932Z,99800.00
2022-10-07T21:54:30.221Z,99798.00
2022-10-07T21:56:58.254Z,99793.00
2022-10-07T21:59:26.354Z,99789.00
2022-10-07T22:01:56.013Z,99779.00
2022-10-07T22:04:24.909Z,99781.00
2022-10-07T22:07:10.618Z,99782.00
2022-10-07T22:09:38.638Z,99779.00
2022-10-07T22:12:06.949Z,99778.00
2022-10-07T22:14:34.978Z,99773.00
2022-10-07T22:17:04.365Z,99768.00
2022-10-07T22:19:32.402Z,99761.00
2022-10-07T22:22:00.519Z,99758.00
2022-10-07T22:24:28.512Z,99761.00
2022-10-07T22:26:56.548Z,99755.00
2022-10-07T22:29:25.159Z,99748.00
2022-10-07T22:31:53.771Z,99754.00
2022-10-07T22:34:42.559Z,99741.00
2022-10-07T22:37:10.716Z,99739.00
2022-10-07T22:39:38.766Z,99743.00
2022-10-07T22:42:06.864Z,99743.00
2022-10-07T22:44:34.896Z,99736.00
2022-10-07T22:47:02.953Z,99737.00
2022-10-07T22:49:32.392Z,99723.00
2022-10-07T22:52:00.952Z,99726.00
2022-10-07T22:54:29.717Z,99713.00
2022-10-07T22:56:57.742Z,99710.00
2022-10-07T22:59:25.854Z,99715.00
2022-10-07T23:01:53.954Z,99712.00
2022-10-07T23:04:21.970Z,99707.00
2022-10-07T23:06:51.383Z,99717.00
2022-10-07T23:09:20.895Z,99708.00
2022-10-07T23:11:48.933Z,99713.00
2022-10-07T23:14:17.869Z,99713.00
2022-10-07T23:16:46.478Z,99716.00
2022-10-07T23:19:14.737Z,99714.00
2022-10-07T23:21:43.904Z,99710.00
2022-10-07T23:24:14.028Z,99712.00
2022-10-07T23:26:43.221Z,99717.00
2022-10-07T23:29:11.632Z,99710.00
2022-10-07T23:31:39.916Z,99707.00
2022-10-07T23:34:08.017Z,99707.00
2022-10-07T23:36:36.029Z,99713.00
2022-10-07T23:39:04.525Z,99699.00
2022-10-07T23:41:34.213Z,99703.00
2022-10-07T23:44:04.074Z,99705.00
2022-10-07T23:46:35.618Z,99699.00
2022-10-07T23:49:05.286Z,99694.00
2022-10-07T23:51:34.414Z,99694.00
2022-10-07T23:54:04.654Z,99691.00
2022-10-07T23:56:34.669Z,99694.00
2022-10-07T23:59:03.819Z,99688.00
